Time;durP1;ratioP1;P1;durP2;ratioP2;P2;SDS_P1;SDS_P2;PMS_P1;PMS_P2;Temp;Humidity;BMP_temperature;BMP_pressure;BME280_temperature;BME280_humidity;BME280_pressure;Samples;Min_cycle;Max_cycle;Signal;HPM_P1;HPM_P2
2023/08/21 00:00:15;;;;;;;0.95;0.90;;;;;;;22.49;78.38;100075.72;5093841;28;20090;-62
2023/08/21 00:02:44;;;;;;;3.15;1.77;;;;;;;22.39;78.56;100073.56;5094426;28;20043;-62
2023/08/21 00:05:13;;;;;;;1.33;1.23;;;;;;;22.33;78.82;100074.69;5094020;28;20043;-62
2023/08/21 00:07:42;;;;;;;2.45;1.27;;;;;;;22.35;78.94;100070.25;5093744;28;20040;-62
2023/08/21 00:10:13;;;;;;;1.00;1.00;;;;;;;22.32;78.91;100085.97;5093894;28;20051;-62
2023/08/21 00:12:43;;;;;;;1.73;0.88;;;;;;;22.32;78.96;100080.78;5093870;28;20131;-62
2023/08/21 00:15:12;;;;;;;1.20;1.10;;;;;;;22.32;78.75;100087.72;5093670;28;20046;-63
2023/08/21 00:17:41;;;;;;;1.73;1.45;;;;;;;22.29;78.48;100083.50;5094254;28;20036;-62
2023/08/21 00:20:11;;;;;;;2.00;1.45;;;;;;;22.22;78.64;100076.88;5093611;28;20044;-62
2023/08/21 00:22:40;;;;;;;1.73;1.58;;;;;;;22.14;78.92;100084.16;5092471;28;20040;-62
2023/08/21 00:25:09;;;;;;;0.57;0.57;;;;;;;22.07;78.89;100077.53;5093596;28;20124;-62
2023/08/21 00:27:39;;;;;;;1.20;0.98;;;;;;;22.02;79.03;100079.47;5093631;28;20048;-62
2023/08/21 00:30:10;;;;;;;1.40;1.25;;;;;;;21.98;79.16;100083.09;5126508;28;20068;-62
2023/08/21 00:32:39;;;;;;;3.25;1.38;;;;;;;22.04;79.09;100077.66;5093674;28;20052;-62
2023/08/21 00:35:09;;;;;;;1.05;0.95;;;;;;;22.02;79.10;100077.72;5093733;28;20482;-62
2023/08/21 00:37:38;;;;;;;0.77;0.77;;;;;;;22.01;79.08;100077.75;5093821;28;20048;-62
2023/08/21 00:40:08;;;;;;;2.45;1.45;;;;;;;22.05;79.22;100079.34;5093497;28;20136;-62
2023/08/21 00:42:37;;;;;;;1.75;1.25;;;;;;;22.07;78.90;100072.31;5093919;28;20044;-62
2023/08/21 00:45:09;;;;;;;2.38;0.95;;;;;;;21.97;79.08;100071.00;5092519;28;20468;-62
2023/08/21 00:47:38;;;;;;;1.08;1.00;;;;;;;21.89;79.23;100080.88;5092577;28;20551;-62
2023/08/21 00:50:09;;;;;;;1.50;1.17;;;;;;;21.80;79.42;100074.25;5093294;28;20047;-62
2023/08/21 00:52:38;;;;;;;1.55;1.00;;;;;;;21.75;79.78;100077.94;5093271;28;20052;-63
2023/08/21 00:55:08;;;;;;;1.75;1.15;;;;;;;21.77;79.87;100081.31;5096968;28;20101;-61
2023/08/21 00:57:40;;;;;;;2.70;1.75;;;;;;;21.77;80.03;100078.72;5097643;28;20052;-63
2023/08/21 01:00:13;;;;;;;1.52;1.40;;;;;;;21.84;79.91;100085.38;5097259;28;20050;-63
2023/08/21 01:02:41;;;;;;;4.47;1.85;;;;;;;21.79;79.74;100082.09;5130200;27;20036;-62
2023/08/21 01:05:14;;;;;;;1.27;0.95;;;;;;;21.78;79.99;100080.44;5097183;28;20068;-63
2023/08/21 01:07:53;;;;;;;0.98;0.73;;;;;;;21.72;80.13;100085.84;5096146;28;20120;-62
2023/08/21 01:10:32;;;;;;;1.35;1.23;;;;;;;21.67;80.28;100085.19;5097007;28;20127;-62
2023/08/21 01:13:10;;;;;;;1.50;1.35;;;;;;;21.68;80.20;100079.09;5095834;28;20051;-62
2023/08/21 01:15:42;;;;;;;1.33;1.23;;;;;;;21.60;80.10;100083.72;5096907;28;20063;-62
2023/08/21 01:18:13;;;;;;;1.25;1.15;;;;;;;21.62;80.42;100079.34;5095881;28;20048;-62
2023/08/21 01:20:42;;;;;;;1.58;1.48;;;;;;;21.66;80.27;100073.97;5095600;28;20054;-62
2023/08/21 01:23:10;;;;;;;;;;;;;;;21.66;80.24;100073.13;5097075;28;20121;-62
2023/08/21 01:25:41;;;;;;;2.00;1.50;;;;;;;21.60;80.36;100081.13;5096966;28;20018;-62
2023/08/21 01:28:10;;;;;;;2.28;1.58;;;;;;;21.55;80.66;100080.47;5095454;28;20052;-62
2023/08/21 01:30:39;;;;;;;2.15;1.48;;;;;;;21.50;80.92;100085.03;5096579;28;20044;-62
2023/08/21 01:33:14;;;;;;;0.60;0.60;;;;;;;21.55;80.84;100083.06;5129703;27;20126;-62
2023/08/21 01:35:44;;;;;;;1.30;1.20;;;;;;;21.50;80.58;100078.06;5095292;28;20130;-63
2023/08/21 01:38:13;;;;;;;1.05;0.93;;;;;;;21.48;80.38;100073.81;5096475;28;20127;-61
2023/08/21 01:40:44;;;;;;;1.92;1.55;;;;;;;21.44;80.19;100069.66;5096778;28;20402;-62
2023/08/21 01:43:13;;;;;;;2.38;2.17;;;;;;;21.44;80.08;100072.25;5096675;28;20048;-62
2023/08/21 01:45:41;;;;;;;2.80;2.10;;;;;;;21.43;80.17;100073.19;5095118;28;20040;-62
2023/08/21 01:48:12;;;;;;;0.90;0.80;;;;;;;21.45;79.98;100086.94;5096319;28;20391;-62
2023/08/21 01:50:41;;;;;;;2.30;1.73;;;;;;;21.41;79.99;100085.34;5096335;28;20048;-62
2023/08/21 01:53:10;;;;;;;2.92;1.52;;;;;;;21.30;80.09;100084.03;5096133;28;20051;-62
2023/08/21 01:55:38;;;;;;;1.90;1.20;;;;;;;21.25;80.37;100078.16;5095164;28;20436;-62
2023/08/21 01:58:09;;;;;;;1.65;0.90;;;;;;;21.28;80.30;100074.63;5096394;28;20477;-62
2023/08/21 02:00:40;;;;;;;1.25;1.15;;;;;;;21.24;79.88;100063.47;5096317;28;20130;-62
2023/08/21 02:03:09;;;;;;;1.60;1.48;;;;;;;21.25;79.82;100070.38;5095279;28;20040;-62
2023/08/21 02:05:41;;;;;;;1.60;1.50;;;;;;;21.12;80.05;100061.34;5093323;28;20032;-62
2023/08/21 02:08:13;;;;;;;2.33;1.60;;;;;;;21.02;79.85;100061.72;5111675;28;20036;-62
2023/08/21 02:10:50;;;;;;;1.20;1.10;;;;;;;20.98;80.43;100060.97;5096204;28;20054;-62
2023/08/21 02:13:21;;;;;;;2.05;1.27;;;;;;;21.07;80.47;100059.81;5094870;28;20391;-61
2023/08/21 02:15:50;;;;;;;1.48;1.38;;;;;;;21.13;80.23;100070.84;5094610;28;20524;-63
2023/08/21 02:18:20;;;;;;;1.60;1.50;;;;;;;21.04;80.37;100060.75;5095068;28;20062;-62
2023/08/21 02:20:50;;;;;;;1.58;1.23;;;;;;;20.98;80.49;100066.19;5095783;28;20401;-62
2023/08/21 02:23:19;;;;;;;1.73;1.27;;;;;;;21.00;80.50;100066.97;5095841;28;20485;-62
2023/08/21 02:25:48;;;;;;;2.85;1.35;;;;;;;20.99;80.28;100060.09;5095860;28;20039;-62
2023/08/21 02:28:18;;;;;;;1.35;1.25;;;;;;;21.00;80.46;100079.09;5094335;28;20051;-62
2023/08/21 02:30:50;;;;;;;4.03;2.20;;;;;;;21.05;80.38;100078.06;5094608;28;20051;-63
2023/08/21 02:33:19;;;;;;;2.28;1.27;;;;;;;21.00;80.24;100074.75;5094212;28;20067;-62
2023/08/21 02:35:48;;;;;;;1.42;1.30;;;;;;;21.01;80.20;100071.25;5094134;28;20502;-63
2023/08/21 02:38:17;;;;;;;3.80;2.15;;;;;;;21.00;80.19;100071.28;5095501;28;20040;-63
2023/08/21 02:40:47;;;;;;;1.05;0.98;;;;;;;20.88;80.43;100074.34;5095287;28;20066;-63
2023/08/21 02:43:17;;;;;;;1.98;1.65;;;;;;;20.78;80.62;100067.81;5095186;28;20051;-62
2023/08/21 02:45:46;;;;;;;1.17;0.90;;;;;;;20.73;80.67;100065.38;5095128;28;20067;-63
2023/08/21 02:48:16;;;;;;;1.85;1.60;;;;;;;20.60;80.98;100062.38;5127723;27;20436;-62
2023/08/21 02:50:45;;;;;;;2.00;1.33;;;;;;;20.53;81.27;100057.47;5095067;28;20062;-63
2023/08/21 02:53:14;;;;;;;1.35;1.25;;;;;;;20.57;81.28;100064.22;5093792;28;20055;-61
2023/08/21 02:55:43;;;;;;;2.28;1.85;;;;;;;20.70;81.35;100062.91;5094957;28;20115;-63
2023/08/21 02:58:14;;;;;;;1.33;1.20;;;;;;;20.78;80.98;100063.44;5094912;28;20048;-63
2023/08/21 03:00:43;;;;;;;1.20;1.10;;;;;;;20.81;80.58;100063.34;5094881;28;20135;-62
2023/08/21 03:03:12;;;;;;;2.30;1.38;;;;;;;20.74;80.75;100054.09;5093593;28;20043;-62
2023/08/21 03:05:43;;;;;;;1.83;1.70;;;;;;;20.60;80.90;100064.13;5094784;28;20048;-62
2023/08/21 03:08:12;;;;;;;1.38;1.02;;;;;;;20.64;81.19;100055.31;5093807;28;20039;-62
2023/08/21 03:10:42;;;;;;;0.85;0.85;;;;;;;20.70;81.13;100057.72;5095464;28;20048;-62
2023/08/21 03:13:11;;;;;;;1.05;0.98;;;;;;;20.68;80.96;100056.94;5093404;28;20042;-62
2023/08/21 03:15:40;;;;;;;;;;;;;;;20.75;81.11;100062.72;5095133;28;20396;-63
2023/08/21 03:18:09;;;;;;;1.58;0.88;;;;;;;20.77;80.96;100051.41;5094917;28;19925;-63
2023/08/21 03:20:38;;;;;;;3.15;1.75;;;;;;;20.71;81.09;100059.38;5093835;28;20043;-63
2023/08/21 03:23:08;;;;;;;3.30;1.67;;;;;;;20.57;81.37;100054.69;5093298;28;20043;-63
2023/08/21 03:25:37;;;;;;;1.55;1.27;;;;;;;20.50;81.68;100057.56;5094497;28;20098;-63
2023/08/21 03:28:06;;;;;;;1.65;0.95;;;;;;;20.47;81.92;100057.66;5093096;28;20506;-62
2023/08/21 03:30:36;;;;;;;1.75;1.65;;;;;;;20.52;82.22;100060.94;5094267;28;20051;-62
2023/08/21 03:33:05;;;;;;;;;;;;;;;20.58;82.04;100060.75;5093487;28;20567;-61
2023/08/21 03:35:34;;;;;;;1.70;1.23;;;;;;;20.63;82.28;100064.88;5094314;28;19927;-63
2023/08/21 03:38:04;;;;;;;1.27;1.17;;;;;;;20.60;82.15;100054.59;5092981;28;20101;-63
2023/08/21 03:40:42;;;;;;;1.63;1.10;;;;;;;20.68;82.25;100062.94;5094134;28;20051;-62
2023/08/21 03:43:11;;;;;;;1.60;1.23;;;;;;;20.74;82.09;100061.88;5093247;28;20578;-61
2023/08/21 03:45:41;;;;;;;1.42;1.00;;;;;;;20.74;82.05;100067.06;5092816;28;20131;-63
2023/08/21 03:48:11;;;;;;;1.20;1.10;;;;;;;20.71;82.32;100054.19;5093764;28;20064;-63
2023/08/21 03:50:40;;;;;;;;;;;;;;;20.73;82.23;100055.00;5094446;28;20044;-61
2023/08/21 03:53:09;;;;;;;3.58;1.83;;;;;;;20.76;82.00;100057.47;5093949;28;20007;-61
2023/08/21 03:55:38;;;;;;;2.83;1.48;;;;;;;20.77;81.97;100066.97;5092692;28;20045;-62
2023/08/21 03:58:12;;;;;;;2.25;2.05;;;;;;;20.76;81.96;100061.81;5093900;28;20063;-63
2023/08/21 04:00:40;;;;;;;3.13;1.02;;;;;;;20.78;82.04;100066.03;5094228;28;20498;-63
2023/08/21 04:03:09;;;;;;;2.78;2.22;;;;;;;20.81;81.84;100063.34;5093803;28;20089;-62
2023/08/21 04:05:38;;;;;;;2.60;1.30;;;;;;;20.79;81.82;100065.16;5092687;28;20048;-62
2023/08/21 04:08:07;;;;;;;2.58;1.77;;;;;;;20.78;81.70;100071.22;5093847;28;20119;-63
2023/08/21 04:10:38;;;;;;;2.72;2.17;;;;;;;20.81;81.68;100073.72;5092699;28;20079;-62
2023/08/21 04:13:07;;;;;;;1.17;1.05;;;;;;;20.80;81.54;100072.06;5094075;28;20044;-62
2023/08/21 04:15:38;;;;;;;1.40;1.07;;;;;;;20.77;81.67;100072.16;5092497;28;20044;-62
2023/08/21 04:18:07;;;;;;;1.90;1.55;;;;;;;20.80;81.47;100077.25;5093670;28;20276;-63
2023/08/21 04:20:37;;;;;;;1.13;1.02;;;;;;;20.83;81.51;100076.28;5093531;28;20044;-61
2023/08/21 04:23:09;;;;;;;2.78;1.73;;;;;;;20.91;81.46;100076.84;5093681;28;20555;-62
2023/08/21 04:25:37;;;;;;;1.27;1.17;;;;;;;20.94;81.44;100084.50;5092439;28;20397;-62
2023/08/21 04:28:07;;;;;;;4.10;1.63;;;;;;;20.98;81.39;100088.69;5093222;28;20040;-62
2023/08/21 04:30:37;;;;;;;5.13;2.45;;;;;;;20.99;81.21;100080.84;5096789;28;20090;-63
2023/08/21 04:33:06;;;;;;;2.20;1.90;;;;;;;21.03;81.04;100081.56;5098031;28;20055;-63
2023/08/21 04:35:38;;;;;;;2.95;1.65;;;;;;;21.09;80.78;100084.81;5097657;28;20044;-63
2023/08/21 04:38:08;;;;;;;1.40;1.30;;;;;;;21.17;80.80;100088.00;5097020;28;20465;-62
2023/08/21 04:40:37;;;;;;;1.55;1.23;;;;;;;21.27;80.72;100089.34;5096336;28;20062;-62
2023/08/21 04:43:06;;;;;;;2.38;1.90;;;;;;;21.35;80.67;100091.66;5096356;28;20085;-63
2023/08/21 04:45:38;;;;;;;2.25;1.63;;;;;;;21.43;80.42;100094.78;5097476;28;20505;-63
2023/08/21 04:48:08;;;;;;;2.60;1.75;;;;;;;21.52;80.57;100098.78;5097119;28;20052;-63
2023/08/21 04:50:37;;;;;;;1.20;1.02;;;;;;;21.53;80.53;100095.28;5097757;28;20056;-62
2023/08/21 04:53:06;;;;;;;2.15;1.90;;;;;;;21.59;80.53;100100.25;5097647;28;20036;-62
2023/08/21 04:55:36;;;;;;;2.25;1.63;;;;;;;21.67;80.46;100098.19;5095953;28;20041;-62
2023/08/21 04:58:05;;;;;;;2.17;1.27;;;;;;;21.70;80.32;100098.91;5097261;28;20131;-62
2023/08/21 05:00:34;;;;;;;2.22;1.45;;;;;;;21.76;80.45;100108.22;5095999;28;20040;-63
2023/08/21 05:03:05;;;;;;;;;;;;;;;21.87;80.45;100106.06;5096410;28;20529;-62
2023/08/21 05:05:34;;;;;;;2.50;2.30;;;;;;;21.96;80.14;100105.69;5097215;28;20007;-62
2023/08/21 05:08:03;;;;;;;1.38;1.23;;;;;;;22.06;80.26;100111.38;5095890;28;20436;-62
2023/08/21 05:10:32;;;;;;;2.08;1.88;;;;;;;22.09;79.71;100113.84;5129995;27;20048;-62
2023/08/21 05:13:01;;;;;;;5.65;1.48;;;;;;;22.15;79.41;100117.03;5096907;28;20101;-63
2023/08/21 05:15:30;;;;;;;1.08;0.98;;;;;;;22.27;79.20;100106.13;5078783;28;20051;-63
2023/08/21 05:17:59;;;;;;;;;;;;;;;22.38;78.83;100118.72;5096013;28;20040;-63
2023/08/21 05:20:30;;;;;;;3.08;1.73;;;;;;;22.48;78.40;100115.63;5096818;28;19920;-62
2023/08/21 05:22:59;;;;;;;0.95;0.88;;;;;;;22.58;78.11;100106.53;5095609;28;20052;-64
2023/08/21 05:25:28;;;;;;;;;;;;;;;22.68;77.63;100107.88;5097212;28;20032;-63
2023/08/21 05:27:57;;;;;;;1.58;1.48;;;;;;;22.75;77.29;100102.41;5095452;28;19920;-63
2023/08/21 05:30:26;;;;;;;2.30;1.88;;;;;;;22.79;77.04;100103.97;5095481;28;20044;-63
2023/08/21 05:32:55;;;;;;;3.70;1.38;;;;;;;22.89;76.66;100111.28;5095289;28;20067;-64
2023/08/21 05:35:24;;;;;;;;;;;;;;;22.96;76.23;100106.66;5096829;28;20486;-62
2023/08/21 05:37:55;;;;;;;8.10;2.63;;;;;;;23.01;76.29;100109.91;5095268;28;19920;-62
2023/08/21 05:40:24;;;;;;;2.60;1.88;;;;;;;23.13;76.16;100109.38;5095277;28;20044;-62
2023/08/21 05:42:53;;;;;;;2.17;1.35;;;;;;;23.25;75.79;100108.81;5095156;28;20119;-63
2023/08/21 05:45:22;;;;;;;5.80;2.00;;;;;;;23.36;75.55;100118.75;5129185;27;20056;-63
2023/08/21 05:47:51;;;;;;;1.75;1.33;;;;;;;23.44;75.30;100122.72;5095386;28;20436;-63
2023/08/21 05:50:19;;;;;;;1.48;1.25;;;;;;;23.58;74.74;100132.50;5096116;28;20075;-63
2023/08/21 05:52:48;;;;;;;1.52;1.42;;;;;;;23.63;74.23;100128.75;5094971;28;20066;-63
2023/08/21 05:55:19;;;;;;;2.97;1.95;;;;;;;23.67;73.72;100119.88;5091360;28;20044;-63
2023/08/21 05:57:48;;;;;;;0.80;0.77;;;;;;;23.78;73.35;100128.00;5094343;28;20526;-63
2023/08/21 06:00:18;;;;;;;8.10;2.17;;;;;;;23.84;72.99;100106.88;5096377;28;20052;-63
2023/08/21 06:02:47;;;;;;;1.80;1.33;;;;;;;23.88;72.67;100116.25;5095230;28;20116;-63
2023/08/21 06:05:35;;;;;;;1.95;1.77;;;;;;;23.92;72.27;100122.97;5095551;28;20040;-63
2023/08/21 06:08:05;;;;;;;6.65;1.95;;;;;;;24.00;72.33;100126.06;5094658;28;20043;-63
2023/08/21 06:10:35;;;;;;;4.95;1.60;;;;;;;24.14;72.35;100122.00;5094613;28;20074;-63
2023/08/21 06:13:04;;;;;;;3.25;1.85;;;;;;;24.16;71.89;100125.38;5093132;28;20054;-64
2023/08/21 06:15:34;;;;;;;1.73;1.35;;;;;;;24.20;71.52;100129.50;5095607;28;20048;-63
2023/08/21 06:18:04;;;;;;;1.77;1.23;;;;;;;24.31;71.52;100129.81;5095994;28;20048;-63
2023/08/21 06:20:33;;;;;;;1.10;1.00;;;;;;;24.42;71.39;100132.75;5095935;28;20182;-63
2023/08/21 06:23:01;;;;;;;0.95;0.93;;;;;;;24.54;71.42;100121.69;5093798;28;20040;-63
2023/08/21 06:25:31;;;;;;;1.30;1.08;;;;;;;24.65;71.53;100129.81;5091669;28;20127;-63
2023/08/21 06:28:01;;;;;;;;;;;;;;;24.75;71.09;100125.81;5095650;28;20048;-63
2023/08/21 06:30:30;;;;;;;1.33;1.23;;;;;;;24.88;71.29;100126.06;5107264;28;20312;-64
2023/08/21 06:32:59;;;;;;;1.65;1.33;;;;;;;24.98;71.40;100117.63;5114916;28;20089;-63
2023/08/21 06:35:28;;;;;;;2.80;1.60;;;;;;;25.03;70.57;100126.09;5089794;28;20131;-63
2023/08/21 06:37:58;;;;;;;2.35;1.30;;;;;;;25.02;70.09;100124.41;5091455;28;20541;-64
2023/08/21 06:40:28;;;;;;;5.10;1.88;;;;;;;25.05;69.84;100124.22;5094741;28;20075;-63
2023/08/21 06:42:56;;;;;;;2.13;1.50;;;;;;;25.13;69.35;100122.06;5095060;28;20123;-63
2023/08/21 06:45:32;;;;;;;0.85;0.82;;;;;;;25.19;68.83;100124.34;5095191;28;20090;-63
2023/08/21 06:48:03;;;;;;;1.42;1.33;;;;;;;25.33;69.05;100123.59;5093904;28;20074;-64
2023/08/21 06:50:32;;;;;;;1.63;1.52;;;;;;;25.41;68.54;100123.19;5095037;28;20081;-63
2023/08/21 06:53:00;;;;;;;1.35;1.10;;;;;;;25.48;68.10;100127.19;5094229;28;20043;-64
2023/08/21 06:55:29;;;;;;;1.70;1.60;;;;;;;25.55;67.75;100123.31;5095141;28;20504;-64
2023/08/21 06:57:58;;;;;;;1.05;1.00;;;;;;;25.61;67.04;100125.59;5094562;28;20051;-66
2023/08/21 07:00:28;;;;;;;1.40;1.10;;;;;;;25.68;66.69;100119.94;5094699;28;20127;-61
2023/08/21 07:02:58;;;;;;;1.75;1.48;;;;;;;25.77;66.84;100123.81;5094789;28;20574;-63
2023/08/21 07:05:27;;;;;;;1.63;1.52;;;;;;;25.85;66.80;100132.06;5094830;28;20040;-64
2023/08/21 07:07:56;;;;;;;1.40;1.15;;;;;;;25.94;66.37;100119.31;5093866;28;20047;-63
2023/08/21 07:10:25;;;;;;;1.45;1.20;;;;;;;25.99;66.81;100129.50;5093831;28;20054;-64
2023/08/21 07:12:54;;;;;;;1.00;0.90;;;;;;;26.06;66.25;100128.22;5093329;28;20040;-63
2023/08/21 07:15:23;;;;;;;2.53;1.50;;;;;;;26.20;66.56;100128.31;5094491;28;20051;-64
2023/08/21 07:17:52;;;;;;;1.08;0.88;;;;;;;26.34;66.01;100136.22;5094731;28;20067;-63
2023/08/21 07:20:23;;;;;;;1.73;1.50;;;;;;;26.49;65.37;100137.94;5094492;28;20119;-63
2023/08/21 07:22:52;;;;;;;1.92;1.20;;;;;;;26.55;64.54;100134.97;5093716;28;20040;-62
2023/08/21 07:25:20;;;;;;;1.85;1.45;;;;;;;26.65;64.24;100134.41;5092538;28;20044;-63
2023/08/21 07:27:52;;;;;;;2.90;1.98;;;;;;;26.74;63.97;100131.25;5093829;28;20048;-64
2023/08/21 07:30:22;;;;;;;2.28;1.48;;;;;;;26.80;63.34;100137.00;5094314;28;20048;-64
2023/08/21 07:32:51;;;;;;;1.05;0.98;;;;;;;26.90;62.52;100129.44;5093263;28;20132;-64
2023/08/21 07:35:20;;;;;;;1.10;1.00;;;;;;;26.99;62.51;100121.88;5094080;28;20040;-63
2023/08/21 07:37:50;;;;;;;;;;;;;;;27.11;62.11;100128.13;5094868;28;20089;-64
2023/08/21 07:40:21;;;;;;;0.93;0.90;;;;;;;27.23;62.04;100132.63;5094216;28;19920;-64
2023/08/21 07:42:51;;;;;;;2.80;2.20;;;;;;;27.36;61.29;100133.53;5093548;28;20028;-63
2023/08/21 07:45:20;;;;;;;9.25;1.83;;;;;;;27.46;61.03;100129.41;5094096;28;20040;-64
2023/08/21 07:47:49;;;;;;;1.90;1.67;;;;;;;27.51;60.80;100122.09;5094081;28;20044;-63
2023/08/21 07:50:36;;;;;;;3.15;1.02;;;;;;;27.68;60.63;100127.13;5094272;28;20413;-63
2023/08/21 07:53:07;;;;;;;0.77;0.77;;;;;;;27.79;60.41;100132.53;5092916;28;20040;-63
2023/08/21 07:55:35;;;;;;;1.23;1.13;;;;;;;27.88;60.14;100121.41;5093824;28;20055;-63
2023/08/21 07:58:05;;;;;;;2.25;2.05;;;;;;;28.00;59.56;100129.50;5094141;28;20048;-63
2023/08/21 08:00:34;;;;;;;1.67;1.15;;;;;;;28.05;58.52;100119.53;5092611;28;20058;-63
2023/08/21 08:03:03;;;;;;;1.75;1.17;;;;;;;28.07;57.88;100122.91;5092092;28;20123;-63
2023/08/21 08:05:32;;;;;;;4.97;1.50;;;;;;;28.17;57.66;100116.09;5093363;28;20420;-63
2023/08/21 08:08:02;;;;;;;1.13;1.00;;;;;;;28.27;57.35;100123.25;5092337;28;20408;-63
2023/08/21 08:10:33;;;;;;;2.47;1.85;;;;;;;28.37;57.21;100123.47;5093763;28;20042;-63
2023/08/21 08:13:01;;;;;;;1.48;1.27;;;;;;;28.49;57.49;100120.88;5093029;28;20047;-63
2023/08/21 08:15:30;;;;;;;1.33;1.23;;;;;;;28.65;57.30;100123.31;5092876;28;20043;-63
2023/08/21 08:17:59;;;;;;;1.50;1.05;;;;;;;28.78;56.09;100129.44;5093737;28;20047;-64
2023/08/21 08:20:28;;;;;;;2.08;1.55;;;;;;;28.83;55.39;100127.34;5093561;28;20075;-64
2023/08/21 08:22:57;;;;;;;1.33;1.23;;;;;;;28.88;55.00;100119.13;5092523;28;20057;-63
2023/08/21 08:25:26;;;;;;;1.15;1.02;;;;;;;28.98;55.11;100120.19;5095464;28;20385;-63
2023/08/21 08:27:56;;;;;;;1.20;1.10;;;;;;;29.09;54.76;100118.47;5093802;28;20371;-63
2023/08/21 08:30:25;;;;;;;1.52;1.25;;;;;;;29.15;54.51;100120.66;5093676;28;20450;-63
2023/08/21 08:32:54;;;;;;;1.35;1.25;;;;;;;29.20;54.20;100121.22;5092822;28;20032;-63
2023/08/21 08:35:22;;;;;;;;;;;;;;;29.35;54.23;100129.81;5090835;28;20064;-63
2023/08/21 08:37:51;;;;;;;1.60;1.42;;;;;;;29.47;54.10;100121.06;5091848;28;20411;-63
2023/08/21 08:40:20;;;;;;;1.45;1.10;;;;;;;29.56;54.01;100107.22;5091954;28;20128;-63
2023/08/21 08:42:49;;;;;;;;;;;;;;;29.68;54.10;100111.63;5093773;28;20043;-63
2023/08/21 08:45:30;;;;;;;1.27;1.13;;;;;;;29.73;53.93;100113.94;5093329;28;19920;-64
2023/08/21 08:48:02;;;;;;;1.75;1.63;;;;;;;29.86;54.33;100114.75;5093324;28;20083;-63
2023/08/21 08:50:32;;;;;;;4.22;2.08;;;;;;;29.95;54.14;100114.06;5092430;28;20044;-63
2023/08/21 08:53:02;;;;;;;2.17;1.58;;;;;;;30.04;54.25;100113.41;5093731;28;20093;-63
2023/08/21 08:55:45;;;;;;;2.30;1.80;;;;;;;30.10;53.96;100112.09;5093169;28;20036;-63
2023/08/21 08:58:13;;;;;;;;;;;;;;;30.24;53.53;100110.09;5093597;28;20127;-63
2023/08/21 09:00:44;;;;;;;1.13;1.02;;;;;;;30.32;53.41;100110.38;5092345;28;19919;-64
2023/08/21 09:03:13;;;;;;;1.55;1.17;;;;;;;30.38;53.08;100107.28;5093602;28;20044;-63
2023/08/21 09:05:43;;;;;;;1.40;1.00;;;;;;;30.47;53.06;100101.31;5093465;28;20044;-63
2023/08/21 09:08:12;;;;;;;2.80;1.98;;;;;;;30.56;52.85;100106.84;5093182;28;20122;-64
2023/08/21 09:10:43;;;;;;;2.45;1.88;;;;;;;30.77;53.28;100102.56;5091868;28;20085;-63
2023/08/21 09:13:14;;;;;;;3.45;1.63;;;;;;;31.01;55.29;100098.06;5093194;28;20071;-63
2023/08/21 09:15:46;;;;;;;1.38;1.25;;;;;;;31.20;55.38;100098.28;5095925;28;20559;-63
2023/08/21 09:18:16;;;;;;;1.67;1.45;;;;;;;31.09;53.66;100095.66;5096290;28;20048;-62
2023/08/21 09:20:45;;;;;;;2.13;1.40;;;;;;;31.11;52.60;100096.38;5096586;28;20044;-63
2023/08/21 09:23:16;;;;;;;1.92;1.35;;;;;;;31.03;52.26;100093.50;5096072;28;20447;-62
2023/08/21 09:25:47;;;;;;;3.13;1.48;;;;;;;31.11;51.89;100091.09;5097089;28;20052;-62
2023/08/21 09:28:21;;;;;;;1.55;1.20;;;;;;;31.28;51.66;100092.41;5095903;28;20052;-63
2023/08/21 09:30:53;;;;;;;15.30;1.90;;;;;;;31.40;50.51;100081.72;5097057;28;20044;-63
2023/08/21 09:33:23;;;;;;;1.45;1.30;;;;;;;31.41;51.01;100091.28;5096645;28;20040;-63
2023/08/21 09:35:54;;;;;;;1.80;1.52;;;;;;;31.49;51.22;100088.91;5096608;28;20052;-63
2023/08/21 09:38:23;;;;;;;1.88;1.67;;;;;;;31.56;50.36;100092.72;5095024;28;20044;-63
2023/08/21 09:40:53;;;;;;;4.25;1.35;;;;;;;31.64;50.07;100090.31;5096733;28;20127;-63
2023/08/21 09:43:23;;;;;;;1.13;1.02;;;;;;;31.64;50.37;100085.03;5096602;28;20036;-63
2023/08/21 09:45:56;;;;;;;2.38;1.50;;;;;;;31.79;50.63;100082.94;5096699;28;20124;-63
2023/08/21 09:48:27;;;;;;;0.93;0.93;;;;;;;31.91;49.80;100081.09;5095239;28;20051;-63
2023/08/21 09:50:57;;;;;;;2.22;1.65;;;;;;;31.88;49.63;100078.69;5094985;28;20076;-62
2023/08/21 09:53:25;;;;;;;9.18;7.90;;;;;;;31.94;49.54;100070.28;5115327;28;20092;-63
2023/08/21 09:55:55;;;;;;;7.63;2.03;;;;;;;32.09;49.24;100069.03;5093730;28;20036;-62
2023/08/21 09:58:26;;;;;;;1.70;1.17;;;;;;;32.11;49.25;100067.09;5095987;28;20040;-62
2023/08/21 10:00:59;;;;;;;1.17;1.08;;;;;;;32.20;49.49;100061.88;5095088;28;20047;-63
2023/08/21 10:03:30;;;;;;;1.65;1.40;;;;;;;32.24;48.66;100057.19;5096286;28;20052;-63
2023/08/21 10:06:00;;;;;;;1.63;1.42;;;;;;;32.16;48.12;100059.63;5094779;28;20101;-62
2023/08/21 10:08:31;;;;;;;1.65;1.45;;;;;;;32.20;48.17;100058.41;5095965;28;20142;-63
2023/08/21 10:11:01;;;;;;;1.20;1.10;;;;;;;32.40;49.51;100060.19;5095898;28;20497;-62
2023/08/21 10:13:34;;;;;;;1.58;1.33;;;;;;;32.45;49.30;100063.28;5094899;28;20052;-63
2023/08/21 10:16:06;;;;;;;1.30;1.13;;;;;;;32.57;49.69;100059.63;5093926;28;20028;-64
2023/08/21 10:18:38;;;;;;;1.05;0.95;;;;;;;32.62;48.59;100054.78;5095761;28;20047;-62
2023/08/21 10:21:14;;;;;;;;;;;;;;;32.65;47.81;100051.03;5096351;28;20051;-64
2023/08/21 10:23:43;;;;;;;1.27;1.15;;;;;;;32.62;47.88;100049.50;5094557;28;19934;-63
2023/08/21 10:26:15;;;;;;;2.08;1.55;;;;;;;32.64;48.22;100042.25;5094697;28;20090;-63
2023/08/21 10:28:49;;;;;;;2.30;1.63;;;;;;;32.79;47.90;100046.22;5095506;28;20048;-63
2023/08/21 10:31:39;;;;;;;1.30;1.15;;;;;;;32.85;47.80;100045.69;5095665;28;20056;-61
2023/08/21 10:34:10;;;;;;;1.30;1.20;;;;;;;32.92;47.69;100046.00;5094753;28;20044;-63
2023/08/21 10:37:07;;;;;;;1.33;1.23;;;;;;;33.11;47.27;100042.59;5095645;28;20509;-63
2023/08/21 10:39:39;;;;;;;0.65;0.65;;;;;;;33.33;47.34;100031.78;5095910;28;20052;-63
2023/08/21 10:42:13;;;;;;;1.35;0.90;;;;;;;33.37;46.70;100038.47;5094083;28;20521;-63
2023/08/21 10:44:52;;;;;;;3.35;1.17;;;;;;;33.31;46.80;100028.41;5094365;28;20048;-63
2023/08/21 10:47:24;;;;;;;1.30;0.93;;;;;;;33.22;46.42;100038.03;5095297;28;20101;-63
2023/08/21 10:49:55;;;;;;;3.20;1.17;;;;;;;33.22;46.05;100031.91;5094922;28;20048;-63
2023/08/21 10:52:26;;;;;;;0.77;0.70;;;;;;;33.33;45.87;100037.09;5094473;28;20040;-62
2023/08/21 10:54:57;;;;;;;1.35;1.23;;;;;;;33.26;45.72;100030.66;5093261;28;20085;-62
2023/08/21 10:57:27;;;;;;;2.20;2.00;;;;;;;33.30;45.77;100037.34;5093009;28;20136;-63
2023/08/21 10:59:58;;;;;;;5.40;2.40;;;;;;;33.49;46.41;100032.09;5089661;28;20040;-63
2023/08/21 11:02:30;;;;;;;2.08;1.75;;;;;;;33.68;45.85;100034.78;5096041;28;20059;-63
2023/08/21 11:04:59;;;;;;;1.58;1.30;;;;;;;33.68;44.87;100032.13;5094265;28;20508;-63
2023/08/21 11:07:29;;;;;;;2.65;1.15;;;;;;;33.95;46.68;100018.16;5093605;28;20040;-65
2023/08/21 11:09:58;;;;;;;1.83;1.60;;;;;;;33.96;45.67;100020.66;5093228;28;20048;-62
2023/08/21 11:12:27;;;;;;;1.00;0.90;;;;;;;33.97;44.61;100016.22;5094658;28;20051;-63
2023/08/21 11:14:55;;;;;;;;;;;;;;;33.86;44.39;100035.72;5095034;28;20043;-63
2023/08/21 11:17:24;;;;;;;0.90;0.80;;;;;;;33.90;44.47;100029.19;5093437;28;19920;-63
2023/08/21 11:19:54;;;;;;;;;;;;;;;34.09;45.42;100017.75;5094835;28;20042;-63
2023/08/21 11:22:30;;;;;;;5.43;1.45;;;;;;;34.09;44.52;100020.41;5094744;28;19927;-63
2023/08/21 11:24:58;;;;;;;1.25;1.13;;;;;;;34.09;44.28;100015.94;5094663;28;20052;-63
2023/08/21 11:27:28;;;;;;;0.80;0.80;;;;;;;34.19;44.15;100026.53;5094106;28;20563;-63
2023/08/21 11:29:57;;;;;;;2.47;1.35;;;;;;;34.12;43.45;100020.94;5094378;28;20036;-63
2023/08/21 11:32:26;;;;;;;1.08;0.85;;;;;;;34.16;42.97;100011.75;5094640;28;20044;-63
2023/08/21 11:34:58;;;;;;;1.08;0.98;;;;;;;34.27;43.21;100019.53;5093007;28;20048;-63
2023/08/21 11:37:28;;;;;;;2.15;1.73;;;;;;;34.48;43.76;100015.84;5087648;28;20049;-64
2023/08/21 11:39:58;;;;;;;1.15;1.05;;;;;;;34.59;42.58;100019.19;5091391;28;20037;-64
2023/08/21 11:42:32;;;;;;;1.25;1.10;;;;;;;34.60;41.37;100014.72;5074215;28;20045;-63